sensor_id;sensor_type;location;lat;lon;timestamp;P1;durP1;ratioP1;P2;durP2;ratioP2
57848;SDS011;68645;44.762;21.516;2023-04-15T00:02:13;31.75;;;19.35;;
57848;SDS011;68645;44.762;21.516;2023-04-15T00:04:39;20.23;;;12.13;;
57848;SDS011;68645;44.762;21.516;2023-04-15T00:07:05;15.07;;;9.02;;
57848;SDS011;68645;44.762;21.516;2023-04-15T00:09:32;20.75;;;11.05;;
57848;SDS011;68645;44.762;21.516;2023-04-15T00:11:58;24.73;;;12.15;;
57848;SDS011;68645;44.762;21.516;2023-04-15T00:14:25;26.95;;;14.90;;
57848;SDS011;68645;44.762;21.516;2023-04-15T00:16:52;24.83;;;12.75;;
57848;SDS011;68645;44.762;21.516;2023-04-15T00:19:20;22.45;;;12.77;;
57848;SDS011;68645;44.762;21.516;2023-04-15T00:21:46;23.23;;;13.23;;
57848;SDS011;68645;44.762;21.516;2023-04-15T00:24:13;21.63;;;14.02;;
57848;SDS011;68645;44.762;21.516;2023-04-15T00:26:39;25.42;;;14.63;;
57848;SDS011;68645;44.762;21.516;2023-04-15T00:29:05;21.35;;;12.55;;
57848;SDS011;68645;44.762;21.516;2023-04-15T00:31:32;22.13;;;13.23;;
57848;SDS011;68645;44.762;21.516;2023-04-15T00:33:58;23.20;;;15.20;;
57848;SDS011;68645;44.762;21.516;2023-04-15T00:36:24;20.25;;;11.00;;
57848;SDS011;68645;44.762;21.516;2023-04-15T00:38:50;32.33;;;15.82;;
57848;SDS011;68645;44.762;21.516;2023-04-15T00:41:17;25.02;;;13.38;;
57848;SDS011;68645;44.762;21.516;2023-04-15T00:43:43;22.25;;;12.65;;
57848;SDS011;68645;44.762;21.516;2023-04-15T00:46:10;26.55;;;16.90;;
57848;SDS011;68645;44.762;21.516;2023-04-15T00:48:37;29.85;;;17.50;;
57848;SDS011;68645;44.762;21.516;2023-04-15T00:51:04;25.58;;;16.13;;
57848;SDS011;68645;44.762;21.516;2023-04-15T00:53:31;21.17;;;13.40;;
57848;SDS011;68645;44.762;21.516;2023-04-15T00:55:57;19.73;;;11.23;;
57848;SDS011;68645;44.762;21.516;2023-04-15T00:58:24;27.50;;;13.70;;
57848;SDS011;68645;44.762;21.516;2023-04-15T01:00:50;27.55;;;13.05;;
57848;SDS011;68645;44.762;21.516;2023-04-15T01:03:18;22.48;;;11.95;;
57848;SDS011;68645;44.762;21.516;2023-04-15T01:05:45;16.85;;;9.23;;
57848;SDS011;68645;44.762;21.516;2023-04-15T01:08:11;18.90;;;8.27;;
57848;SDS011;68645;44.762;21.516;2023-04-15T01:10:38;12.45;;;7.32;;
57848;SDS011;68645;44.762;21.516;2023-04-15T01:13:04;13.93;;;7.15;;
57848;SDS011;68645;44.762;21.516;2023-04-15T01:15:30;12.90;;;7.53;;
57848;SDS011;68645;44.762;21.516;2023-04-15T01:17:57;13.90;;;7.75;;
57848;SDS011;68645;44.762;21.516;2023-04-15T01:20:24;12.90;;;7.10;;
57848;SDS011;68645;44.762;21.516;2023-04-15T01:22:51;11.95;;;8.02;;
57848;SDS011;68645;44.762;21.516;2023-04-15T01:25:30;11.95;;;7.50;;
57848;SDS011;68645;44.762;21.516;2023-04-15T01:27:59;14.40;;;8.05;;
57848;SDS011;68645;44.762;21.516;2023-04-15T01:30:26;15.63;;;9.20;;
57848;SDS011;68645;44.762;21.516;2023-04-15T01:32:52;20.80;;;8.85;;
57848;SDS011;68645;44.762;21.516;2023-04-15T01:35:18;18.83;;;8.52;;
57848;SDS011;68645;44.762;21.516;2023-04-15T01:37:45;13.75;;;7.45;;
57848;SDS011;68645;44.762;21.516;2023-04-15T01:40:12;16.05;;;9.32;;
57848;SDS011;68645;44.762;21.516;2023-04-15T01:42:39;16.50;;;9.35;;
57848;SDS011;68645;44.762;21.516;2023-04-15T01:45:05;13.80;;;7.65;;
57848;SDS011;68645;44.762;21.516;2023-04-15T01:47:32;15.90;;;8.43;;
57848;SDS011;68645;44.762;21.516;2023-04-15T01:49:58;15.32;;;8.98;;
57848;SDS011;68645;44.762;21.516;2023-04-15T01:52:24;16.10;;;9.02;;
57848;SDS011;68645;44.762;21.516;2023-04-15T01:54:50;17.00;;;9.73;;
57848;SDS011;68645;44.762;21.516;2023-04-15T01:57:16;36.95;;;24.15;;
57848;SDS011;68645;44.762;21.516;2023-04-15T01:59:42;212.95;;;140.95;;
57848;SDS011;68645;44.762;21.516;2023-04-15T02:02:08;89.75;;;60.78;;
57848;SDS011;68645;44.762;21.516;2023-04-15T02:04:35;45.50;;;30.17;;
57848;SDS011;68645;44.762;21.516;2023-04-15T02:07:01;31.77;;;19.92;;
57848;SDS011;68645;44.762;21.516;2023-04-15T02:09:27;43.88;;;22.65;;
57848;SDS011;68645;44.762;21.516;2023-04-15T02:11:54;36.20;;;21.98;;
57848;SDS011;68645;44.762;21.516;2023-04-15T02:14:20;37.17;;;19.52;;
57848;SDS011;68645;44.762;21.516;2023-04-15T02:16:46;30.95;;;18.15;;
57848;SDS011;68645;44.762;21.516;2023-04-15T02:19:12;95.05;;;49.65;;
57848;SDS011;68645;44.762;21.516;2023-04-15T02:21:39;137.68;;;73.90;;
57848;SDS011;68645;44.762;21.516;2023-04-15T02:24:05;106.95;;;54.47;;
57848;SDS011;68645;44.762;21.516;2023-04-15T02:26:31;32.33;;;16.70;;
57848;SDS011;68645;44.762;21.516;2023-04-15T02:28:58;28.55;;;17.67;;
57848;SDS011;68645;44.762;21.516;2023-04-15T02:31:24;79.55;;;44.55;;
57848;SDS011;68645;44.762;21.516;2023-04-15T02:33:50;29.10;;;16.75;;
57848;SDS011;68645;44.762;21.516;2023-04-15T02:36:17;30.50;;;17.42;;
57848;SDS011;68645;44.762;21.516;2023-04-15T02:38:43;32.05;;;16.27;;
57848;SDS011;68645;44.762;21.516;2023-04-15T02:41:09;19.58;;;10.30;;
57848;SDS011;68645;44.762;21.516;2023-04-15T02:43:36;37.45;;;17.88;;
57848;SDS011;68645;44.762;21.516;2023-04-15T02:46:04;31.10;;;15.60;;
57848;SDS011;68645;44.762;21.516;2023-04-15T02:48:30;31.10;;;18.75;;
57848;SDS011;68645;44.762;21.516;2023-04-15T02:53:38;22.75;;;12.50;;
57848;SDS011;68645;44.762;21.516;2023-04-15T02:56:05;20.83;;;11.35;;
57848;SDS011;68645;44.762;21.516;2023-04-15T02:58:33;30.52;;;16.88;;
57848;SDS011;68645;44.762;21.516;2023-04-15T03:01:00;33.17;;;15.75;;
57848;SDS011;68645;44.762;21.516;2023-04-15T03:03:26;25.05;;;13.52;;
57848;SDS011;68645;44.762;21.516;2023-04-15T03:05:53;23.98;;;12.35;;
57848;SDS011;68645;44.762;21.516;2023-04-15T03:08:19;23.55;;;12.40;;
57848;SDS011;68645;44.762;21.516;2023-04-15T03:10:45;25.05;;;13.68;;
57848;SDS011;68645;44.762;21.516;2023-04-15T03:13:11;26.77;;;13.30;;
57848;SDS011;68645;44.762;21.516;2023-04-15T03:15:38;24.33;;;14.85;;
57848;SDS011;68645;44.762;21.516;2023-04-15T03:18:04;24.20;;;13.77;;
57848;SDS011;68645;44.762;21.516;2023-04-15T03:20:30;24.02;;;13.32;;
57848;SDS011;68645;44.762;21.516;2023-04-15T03:22:56;29.20;;;17.83;;
57848;SDS011;68645;44.762;21.516;2023-04-15T03:25:22;26.00;;;15.05;;
57848;SDS011;68645;44.762;21.516;2023-04-15T03:27:48;25.23;;;15.82;;
57848;SDS011;68645;44.762;21.516;2023-04-15T03:30:15;29.23;;;18.65;;
57848;SDS011;68645;44.762;21.516;2023-04-15T03:32:41;28.08;;;17.50;;
57848;SDS011;68645;44.762;21.516;2023-04-15T03:35:07;20.52;;;13.40;;
57848;SDS011;68645;44.762;21.516;2023-04-15T03:37:33;28.75;;;16.00;;
57848;SDS011;68645;44.762;21.516;2023-04-15T03:40:00;22.35;;;11.68;;
57848;SDS011;68645;44.762;21.516;2023-04-15T03:42:26;19.83;;;11.63;;
57848;SDS011;68645;44.762;21.516;2023-04-15T03:44:52;19.75;;;11.77;;
57848;SDS011;68645;44.762;21.516;2023-04-15T03:47:18;18.55;;;11.25;;
57848;SDS011;68645;44.762;21.516;2023-04-15T03:49:45;22.05;;;11.63;;
57848;SDS011;68645;44.762;21.516;2023-04-15T03:52:11;18.73;;;10.85;;
57848;SDS011;68645;44.762;21.516;2023-04-15T03:54:37;15.40;;;9.68;;
57848;SDS011;68645;44.762;21.516;2023-04-15T03:57:03;16.58;;;10.52;;
57848;SDS011;68645;44.762;21.516;2023-04-15T03:59:29;11.20;;;4.93;;
57848;SDS011;68645;44.762;21.516;2023-04-15T04:01:55;10.23;;;6.25;;
57848;SDS011;68645;44.762;21.516;2023-04-15T04:04:22;14.20;;;7.93;;
57848;SDS011;68645;44.762;21.516;2023-04-15T04:06:48;11.88;;;8.43;;
57848;SDS011;68645;44.762;21.516;2023-04-15T04:09:14;11.50;;;7.28;;
57848;SDS011;68645;44.762;21.516;2023-04-15T04:11:40;13.80;;;7.75;;
57848;SDS011;68645;44.762;21.516;2023-04-15T04:14:06;13.82;;;9.25;;
57848;SDS011;68645;44.762;21.516;2023-04-15T04:16:32;14.57;;;8.60;;
57848;SDS011;68645;44.762;21.516;2023-04-15T04:18:58;15.00;;;9.13;;
57848;SDS011;68645;44.762;21.516;2023-04-15T04:21:25;17.42;;;11.10;;
57848;SDS011;68645;44.762;21.516;2023-04-15T04:23:51;20.80;;;11.50;;
57848;SDS011;68645;44.762;21.516;2023-04-15T04:26:17;22.55;;;14.20;;
57848;SDS011;68645;44.762;21.516;2023-04-15T04:28:43;26.33;;;18.17;;
57848;SDS011;68645;44.762;21.516;2023-04-15T04:31:10;30.40;;;19.60;;
57848;SDS011;68645;44.762;21.516;2023-04-15T04:33:36;28.95;;;19.02;;
57848;SDS011;68645;44.762;21.516;2023-04-15T04:36:02;32.70;;;22.00;;
57848;SDS011;68645;44.762;21.516;2023-04-15T04:38:28;17.92;;;12.43;;
57848;SDS011;68645;44.762;21.516;2023-04-15T04:40:55;18.77;;;13.43;;
57848;SDS011;68645;44.762;21.516;2023-04-15T04:43:21;18.65;;;12.60;;
57848;SDS011;68645;44.762;21.516;2023-04-15T04:45:47;17.83;;;10.95;;
57848;SDS011;68645;44.762;21.516;2023-04-15T04:48:13;17.10;;;12.25;;
57848;SDS011;68645;44.762;21.516;2023-04-15T04:50:39;20.80;;;13.68;;
57848;SDS011;68645;44.762;21.516;2023-04-15T04:53:06;18.48;;;13.20;;
57848;SDS011;68645;44.762;21.516;2023-04-15T04:55:32;16.92;;;12.10;;
57848;SDS011;68645;44.762;21.516;2023-04-15T04:58:01;17.58;;;12.02;;
57848;SDS011;68645;44.762;21.516;2023-04-15T05:00:27;17.65;;;11.52;;
57848;SDS011;68645;44.762;21.516;2023-04-15T05:02:53;18.05;;;12.65;;
57848;SDS011;68645;44.762;21.516;2023-04-15T05:05:20;18.25;;;12.48;;
57848;SDS011;68645;44.762;21.516;2023-04-15T05:07:46;19.20;;;13.20;;
57848;SDS011;68645;44.762;21.516;2023-04-15T05:10:14;27.88;;;17.92;;
57848;SDS011;68645;44.762;21.516;2023-04-15T05:12:42;27.35;;;16.83;;
57848;SDS011;68645;44.762;21.516;2023-04-15T05:15:08;32.10;;;20.10;;
57848;SDS011;68645;44.762;21.516;2023-04-15T05:17:34;34.53;;;21.38;;
57848;SDS011;68645;44.762;21.516;2023-04-15T05:20:01;40.83;;;22.67;;
57848;SDS011;68645;44.762;21.516;2023-04-15T05:22:28;34.22;;;20.15;;
57848;SDS011;68645;44.762;21.516;2023-04-15T05:24:54;29.58;;;19.02;;
57848;SDS011;68645;44.762;21.516;2023-04-15T05:27:20;35.20;;;18.90;;
57848;SDS011;68645;44.762;21.516;2023-04-15T05:29:48;16.75;;;10.18;;
57848;SDS011;68645;44.762;21.516;2023-04-15T05:32:14;14.68;;;8.55;;
57848;SDS011;68645;44.762;21.516;2023-04-15T05:34:41;17.17;;;7.95;;
57848;SDS011;68645;44.762;21.516;2023-04-15T05:37:08;12.27;;;7.40;;
57848;SDS011;68645;44.762;21.516;2023-04-15T05:39:34;15.48;;;9.15;;
57848;SDS011;68645;44.762;21.516;2023-04-15T05:42:00;13.45;;;7.70;;
57848;SDS011;68645;44.762;21.516;2023-04-15T05:44:26;9.77;;;5.57;;
57848;SDS011;68645;44.762;21.516;2023-04-15T05:46:52;13.65;;;7.13;;
57848;SDS011;68645;44.762;21.516;2023-04-15T05:49:19;12.25;;;7.53;;
57848;SDS011;68645;44.762;21.516;2023-04-15T05:51:46;11.50;;;5.65;;
57848;SDS011;68645;44.762;21.516;2023-04-15T05:54:12;13.57;;;5.65;;
57848;SDS011;68645;44.762;21.516;2023-04-15T05:56:38;17.08;;;8.18;;
57848;SDS011;68645;44.762;21.516;2023-04-15T05:59:04;11.75;;;7.28;;
57848;SDS011;68645;44.762;21.516;2023-04-15T06:01:32;18.98;;;9.15;;
57848;SDS011;68645;44.762;21.516;2023-04-15T06:03:59;8.20;;;4.25;;
57848;SDS011;68645;44.762;21.516;2023-04-15T06:06:25;15.20;;;6.28;;
57848;SDS011;68645;44.762;21.516;2023-04-15T06:08:52;9.75;;;6.20;;
57848;SDS011;68645;44.762;21.516;2023-04-15T06:11:19;12.85;;;7.35;;
57848;SDS011;68645;44.762;21.516;2023-04-15T06:13:46;9.30;;;5.28;;
57848;SDS011;68645;44.762;21.516;2023-04-15T06:16:12;10.40;;;5.07;;
57848;SDS011;68645;44.762;21.516;2023-04-15T06:18:38;19.48;;;7.65;;
57848;SDS011;68645;44.762;21.516;2023-04-15T06:21:04;8.82;;;4.68;;
57848;SDS011;68645;44.762;21.516;2023-04-15T06:23:33;7.68;;;4.03;;
57848;SDS011;68645;44.762;21.516;2023-04-15T06:26:00;6.75;;;2.70;;
57848;SDS011;68645;44.762;21.516;2023-04-15T06:28:26;5.25;;;3.25;;
57848;SDS011;68645;44.762;21.516;2023-04-15T06:30:52;7.47;;;3.35;;
57848;SDS011;68645;44.762;21.516;2023-04-15T06:33:19;10.88;;;5.25;;
57848;SDS011;68645;44.762;21.516;2023-04-15T06:35:46;15.10;;;6.18;;
57848;SDS011;68645;44.762;21.516;2023-04-15T06:38:13;18.67;;;7.40;;
57848;SDS011;68645;44.762;21.516;2023-04-15T06:40:40;14.27;;;8.73;;
57848;SDS011;68645;44.762;21.516;2023-04-15T06:43:06;12.52;;;6.72;;
57848;SDS011;68645;44.762;21.516;2023-04-15T06:45:33;10.82;;;6.32;;
57848;SDS011;68645;44.762;21.516;2023-04-15T06:47:59;12.85;;;6.22;;
57848;SDS011;68645;44.762;21.516;2023-04-15T06:50:25;12.57;;;5.63;;
57848;SDS011;68645;44.762;21.516;2023-04-15T06:52:54;9.18;;;4.22;;
57848;SDS011;68645;44.762;21.516;2023-04-15T06:55:21;9.13;;;3.72;;
57848;SDS011;68645;44.762;21.516;2023-04-15T06:57:47;6.75;;;3.28;;
57848;SDS011;68645;44.762;21.516;2023-04-15T07:00:14;4.25;;;2.75;;
57848;SDS011;68645;44.762;21.516;2023-04-15T07:02:40;9.48;;;4.60;;
57848;SDS011;68645;44.762;21.516;2023-04-15T07:05:06;7.30;;;3.45;;
57848;SDS011;68645;44.762;21.516;2023-04-15T07:07:33;6.13;;;2.88;;
57848;SDS011;68645;44.762;21.516;2023-04-15T07:10:00;7.00;;;3.00;;
57848;SDS011;68645;44.762;21.516;2023-04-15T07:12:27;4.57;;;2.10;;
57848;SDS011;68645;44.762;21.516;2023-04-15T07:14:53;10.10;;;5.53;;
57848;SDS011;68645;44.762;21.516;2023-04-15T07:17:20;9.50;;;4.10;;
57848;SDS011;68645;44.762;21.516;2023-04-15T07:19:46;5.50;;;2.40;;
57848;SDS011;68645;44.762;21.516;2023-04-15T07:22:12;10.95;;;4.20;;
57848;SDS011;68645;44.762;21.516;2023-04-15T07:24:38;5.93;;;2.70;;
57848;SDS011;68645;44.762;21.516;2023-04-15T07:27:04;7.10;;;3.15;;
57848;SDS011;68645;44.762;21.516;2023-04-15T07:29:30;6.22;;;2.85;;
57848;SDS011;68645;44.762;21.516;2023-04-15T07:31:57;3.40;;;1.60;;
57848;SDS011;68645;44.762;21.516;2023-04-15T07:34:23;5.88;;;1.35;;
57848;SDS011;68645;44.762;21.516;2023-04-15T07:36:49;2.45;;;1.17;;
57848;SDS011;68645;44.762;21.516;2023-04-15T07:39:16;3.05;;;1.40;;
57848;SDS011;68645;44.762;21.516;2023-04-15T07:41:43;6.53;;;2.63;;
57848;SDS011;68645;44.762;21.516;2023-04-15T07:44:09;4.38;;;2.53;;
57848;SDS011;68645;44.762;21.516;2023-04-15T07:46:36;3.25;;;1.10;;
57848;SDS011;68645;44.762;21.516;2023-04-15T07:49:02;3.97;;;1.75;;
57848;SDS011;68645;44.762;21.516;2023-04-15T07:51:28;2.30;;;1.05;;
57848;SDS011;68645;44.762;21.516;2023-04-15T07:53:54;2.25;;;0.88;;
57848;SDS011;68645;44.762;21.516;2023-04-15T07:56:21;3.72;;;1.75;;
57848;SDS011;68645;44.762;21.516;2023-04-15T07:58:47;3.05;;;1.52;;
57848;SDS011;68645;44.762;21.516;2023-04-15T08:01:13;3.03;;;1.30;;
57848;SDS011;68645;44.762;21.516;2023-04-15T08:03:39;6.20;;;3.25;;
57848;SDS011;68645;44.762;21.516;2023-04-15T08:06:05;3.22;;;1.65;;
57848;SDS011;68645;44.762;21.516;2023-04-15T08:08:32;2.85;;;1.13;;
57848;SDS011;68645;44.762;21.516;2023-04-15T08:10:58;2.03;;;1.00;;
57848;SDS011;68645;44.762;21.516;2023-04-15T08:13:24;1.73;;;1.02;;
57848;SDS011;68645;44.762;21.516;2023-04-15T08:15:52;4.10;;;2.30;;
57848;SDS011;68645;44.762;21.516;2023-04-15T08:18:37;3.45;;;1.50;;
57848;SDS011;68645;44.762;21.516;2023-04-15T08:21:03;2.25;;;1.13;;
57848;SDS011;68645;44.762;21.516;2023-04-15T08:23:30;1.85;;;0.82;;
57848;SDS011;68645;44.762;21.516;2023-04-15T08:25:57;3.75;;;1.25;;
57848;SDS011;68645;44.762;21.516;2023-04-15T08:28:23;2.10;;;1.00;;
57848;SDS011;68645;44.762;21.516;2023-04-15T08:30:51;3.63;;;1.40;;
57848;SDS011;68645;44.762;21.516;2023-04-15T08:33:17;1.98;;;1.13;;
57848;SDS011;68645;44.762;21.516;2023-04-15T08:35:43;3.72;;;1.40;;
57848;SDS011;68645;44.762;21.516;2023-04-15T08:38:09;2.08;;;1.50;;
57848;SDS011;68645;44.762;21.516;2023-04-15T08:40:42;2.67;;;1.02;;
57848;SDS011;68645;44.762;21.516;2023-04-15T08:43:09;2.88;;;0.80;;
57848;SDS011;68645;44.762;21.516;2023-04-15T08:45:37;1.52;;;0.90;;
57848;SDS011;68645;44.762;21.516;2023-04-15T08:48:04;1.80;;;1.05;;
57848;SDS011;68645;44.762;21.516;2023-04-15T08:50:31;3.47;;;1.70;;
57848;SDS011;68645;44.762;21.516;2023-04-15T08:52:57;2.25;;;1.13;;
57848;SDS011;68645;44.762;21.516;2023-04-15T08:55:32;3.10;;;1.20;;
57848;SDS011;68645;44.762;21.516;2023-04-15T08:58:00;1.98;;;1.23;;
57848;SDS011;68645;44.762;21.516;2023-04-15T09:00:27;3.95;;;1.67;;
57848;SDS011;68645;44.762;21.516;2023-04-15T09:02:56;1.85;;;1.08;;
57848;SDS011;68645;44.762;21.516;2023-04-15T09:05:23;2.47;;;1.10;;
57848;SDS011;68645;44.762;21.516;2023-04-15T09:07:50;2.03;;;1.33;;
57848;SDS011;68645;44.762;21.516;2023-04-15T09:10:16;3.17;;;1.02;;
57848;SDS011;68645;44.762;21.516;2023-04-15T09:12:42;3.28;;;1.40;;
57848;SDS011;68645;44.762;21.516;2023-04-15T09:15:11;1.90;;;1.20;;
57848;SDS011;68645;44.762;21.516;2023-04-15T09:17:42;4.25;;;2.65;;
57848;SDS011;68645;44.762;21.516;2023-04-15T09:20:09;13.87;;;9.70;;
57848;SDS011;68645;44.762;21.516;2023-04-15T09:22:37;13.48;;;9.25;;
57848;SDS011;68645;44.762;21.516;2023-04-15T09:25:03;3.13;;;1.50;;
57848;SDS011;68645;44.762;21.516;2023-04-15T09:27:54;5.10;;;1.65;;
57848;SDS011;68645;44.762;21.516;2023-04-15T09:30:20;3.70;;;1.95;;
57848;SDS011;68645;44.762;21.516;2023-04-15T09:32:50;2.20;;;1.10;;
57848;SDS011;68645;44.762;21.516;2023-04-15T09:35:17;1.57;;;1.00;;
57848;SDS011;68645;44.762;21.516;2023-04-15T09:37:43;2.95;;;1.13;;
57848;SDS011;68645;44.762;21.516;2023-04-15T09:40:10;2.35;;;1.30;;
57848;SDS011;68645;44.762;21.516;2023-04-15T09:42:36;1.63;;;0.88;;
57848;SDS011;68645;44.762;21.516;2023-04-15T09:45:19;2.45;;;1.20;;
57848;SDS011;68645;44.762;21.516;2023-04-15T09:47:45;1.27;;;0.93;;
57848;SDS011;68645;44.762;21.516;2023-04-15T09:50:11;1.98;;;0.90;;
57848;SDS011;68645;44.762;21.516;2023-04-15T09:52:42;2.42;;;1.10;;
57848;SDS011;68645;44.762;21.516;2023-04-15T09:55:08;2.00;;;1.05;;
57848;SDS011;68645;44.762;21.516;2023-04-15T09:57:35;2.35;;;0.93;;
57848;SDS011;68645;44.762;21.516;2023-04-15T10:00:04;1.67;;;1.10;;
57848;SDS011;68645;44.762;21.516;2023-04-15T10:02:33;2.75;;;1.08;;
57848;SDS011;68645;44.762;21.516;2023-04-15T10:05:00;1.92;;;0.90;;
57848;SDS011;68645;44.762;21.516;2023-04-15T10:07:27;1.50;;;0.90;;
57848;SDS011;68645;44.762;21.516;2023-04-15T10:09:53;1.27;;;0.80;;
57848;SDS011;68645;44.762;21.516;2023-04-15T10:12:20;3.05;;;1.20;;
57848;SDS011;68645;44.762;21.516;2023-04-15T10:14:47;2.80;;;1.10;;
57848;SDS011;68645;44.762;21.516;2023-04-15T10:17:14;4.50;;;2.03;;
57848;SDS011;68645;44.762;21.516;2023-04-15T10:19:41;4.00;;;1.00;;
57848;SDS011;68645;44.762;21.516;2023-04-15T10:22:07;3.17;;;1.42;;
57848;SDS011;68645;44.762;21.516;2023-04-15T10:24:34;4.72;;;2.10;;
57848;SDS011;68645;44.762;21.516;2023-04-15T10:27:02;2.75;;;1.30;;
57848;SDS011;68645;44.762;21.516;2023-04-15T10:29:28;6.85;;;3.60;;
57848;SDS011;68645;44.762;21.516;2023-04-15T10:31:54;3.05;;;1.45;;
57848;SDS011;68645;44.762;21.516;2023-04-15T10:34:22;12.85;;;6.03;;
57848;SDS011;68645;44.762;21.516;2023-04-15T10:36:49;2.17;;;1.20;;
57848;SDS011;68645;44.762;21.516;2023-04-15T10:42:17;11.07;;;5.45;;
57848;SDS011;68645;44.762;21.516;2023-04-15T10:44:50;6.30;;;1.70;;
57848;SDS011;68645;44.762;21.516;2023-04-15T10:47:18;6.72;;;3.53;;
57848;SDS011;68645;44.762;21.516;2023-04-15T10:50:06;5.78;;;2.20;;
57848;SDS011;68645;44.762;21.516;2023-04-15T10:52:32;4.80;;;1.70;;
57848;SDS011;68645;44.762;21.516;2023-04-15T10:55:02;7.15;;;1.77;;
57848;SDS011;68645;44.762;21.516;2023-04-15T10:57:36;2.10;;;1.25;;
57848;SDS011;68645;44.762;21.516;2023-04-15T11:00:16;5.15;;;2.22;;
57848;SDS011;68645;44.762;21.516;2023-04-15T11:02:46;3.55;;;1.63;;
57848;SDS011;68645;44.762;21.516;2023-04-15T11:05:13;5.10;;;1.63;;
57848;SDS011;68645;44.762;21.516;2023-04-15T11:12:38;7.55;;;3.38;;
57848;SDS011;68645;44.762;21.516;2023-04-15T11:18:10;3.72;;;1.90;;
57848;SDS011;68645;44.762;21.516;2023-04-15T11:20:38;22.83;;;2.00;;
57848;SDS011;68645;44.762;21.516;2023-04-15T11:23:04;2.55;;;1.60;;
57848;SDS011;68645;44.762;21.516;2023-04-15T11:25:31;6.57;;;5.07;;
57848;SDS011;68645;44.762;21.516;2023-04-15T11:27:58;6.45;;;3.95;;
57848;SDS011;68645;44.762;21.516;2023-04-15T11:30:26;3.08;;;1.80;;
57848;SDS011;68645;44.762;21.516;2023-04-15T11:33:02;6.80;;;1.63;;
57848;SDS011;68645;44.762;21.516;2023-04-15T11:35:29;2.83;;;1.70;;
57848;SDS011;68645;44.762;21.516;2023-04-15T11:37:55;4.57;;;1.98;;
57848;SDS011;68645;44.762;21.516;2023-04-15T11:40:23;5.22;;;2.38;;
57848;SDS011;68645;44.762;21.516;2023-04-15T11:43:35;3.42;;;1.60;;
57848;SDS011;68645;44.762;21.516;2023-04-15T11:45:36;3.15;;;1.30;;
57848;SDS011;68645;44.762;21.516;2023-04-15T11:48:06;4.38;;;1.30;;
57848;SDS011;68645;44.762;21.516;2023-04-15T11:50:33;1.97;;;1.10;;
57848;SDS011;68645;44.762;21.516;2023-04-15T11:53:00;5.20;;;2.60;;
57848;SDS011;68645;44.762;21.516;2023-04-15T11:55:27;4.60;;;1.85;;
57848;SDS011;68645;44.762;21.516;2023-04-15T12:00:32;5.47;;;1.80;;
57848;SDS011;68645;44.762;21.516;2023-04-15T12:03:11;4.82;;;1.17;;
57848;SDS011;68645;44.762;21.516;2023-04-15T12:08:22;4.05;;;1.30;;
57848;SDS011;68645;44.762;21.516;2023-04-15T12:10:48;8.23;;;6.10;;
57848;SDS011;68645;44.762;21.516;2023-04-15T12:13:15;5.85;;;2.88;;
57848;SDS011;68645;44.762;21.516;2023-04-15T12:15:41;3.72;;;1.90;;
57848;SDS011;68645;44.762;21.516;2023-04-15T12:18:15;8.25;;;3.50;;
57848;SDS011;68645;44.762;21.516;2023-04-15T12:20:44;5.95;;;3.47;;
57848;SDS011;68645;44.762;21.516;2023-04-15T12:23:11;8.77;;;5.13;;
57848;SDS011;68645;44.762;21.516;2023-04-15T12:25:37;4.82;;;2.58;;
57848;SDS011;68645;44.762;21.516;2023-04-15T12:28:10;6.57;;;2.65;;
57848;SDS011;68645;44.762;21.516;2023-04-15T12:30:47;6.38;;;2.72;;
57848;SDS011;68645;44.762;21.516;2023-04-15T12:33:15;3.58;;;1.20;;
57848;SDS011;68645;44.762;21.516;2023-04-15T12:35:41;3.63;;;1.70;;
57848;SDS011;68645;44.762;21.516;2023-04-15T12:38:08;7.55;;;3.75;;
57848;SDS011;68645;44.762;21.516;2023-04-15T12:40:34;4.55;;;2.10;;
57848;SDS011;68645;44.762;21.516;2023-04-15T12:43:01;5.28;;;2.13;;
57848;SDS011;68645;44.762;21.516;2023-04-15T12:45:27;5.43;;;2.78;;
57848;SDS011;68645;44.762;21.516;2023-04-15T12:47:53;4.30;;;1.55;;
57848;SDS011;68645;44.762;21.516;2023-04-15T12:50:20;1.92;;;1.13;;
57848;SDS011;68645;44.762;21.516;2023-04-15T12:52:46;2.72;;;1.10;;
57848;SDS011;68645;44.762;21.516;2023-04-15T12:55:12;4.70;;;2.92;;
57848;SDS011;68645;44.762;21.516;2023-04-15T12:57:38;5.60;;;2.38;;
57848;SDS011;68645;44.762;21.516;2023-04-15T13:00:04;3.50;;;2.05;;
57848;SDS011;68645;44.762;21.516;2023-04-15T13:02:32;3.92;;;2.15;;
57848;SDS011;68645;44.762;21.516;2023-04-15T13:04:58;7.28;;;2.95;;
57848;SDS011;68645;44.762;21.516;2023-04-15T13:07:24;6.28;;;1.92;;
57848;SDS011;68645;44.762;21.516;2023-04-15T13:09:50;8.45;;;3.70;;
57848;SDS011;68645;44.762;21.516;2023-04-15T13:12:16;3.47;;;1.85;;
57848;SDS011;68645;44.762;21.516;2023-04-15T13:14:43;10.25;;;5.57;;
57848;SDS011;68645;44.762;21.516;2023-04-15T13:17:09;9.55;;;4.97;;
57848;SDS011;68645;44.762;21.516;2023-04-15T13:19:35;8.57;;;4.57;;
57848;SDS011;68645;44.762;21.516;2023-04-15T13:22:02;8.60;;;4.43;;
57848;SDS011;68645;44.762;21.516;2023-04-15T13:24:28;13.35;;;7.32;;
57848;SDS011;68645;44.762;21.516;2023-04-15T13:26:54;5.32;;;2.58;;
57848;SDS011;68645;44.762;21.516;2023-04-15T13:29:23;4.78;;;2.83;;
57848;SDS011;68645;44.762;21.516;2023-04-15T13:31:49;8.45;;;5.15;;
57848;SDS011;68645;44.762;21.516;2023-04-15T13:34:15;4.85;;;1.90;;
57848;SDS011;68645;44.762;21.516;2023-04-15T13:36:41;4.57;;;2.67;;
57848;SDS011;68645;44.762;21.516;2023-04-15T13:39:07;10.57;;;5.47;;
57848;SDS011;68645;44.762;21.516;2023-04-15T13:41:33;6.30;;;3.17;;
57848;SDS011;68645;44.762;21.516;2023-04-15T13:44:01;5.93;;;2.80;;
57848;SDS011;68645;44.762;21.516;2023-04-15T13:46:29;4.47;;;2.45;;
57848;SDS011;68645;44.762;21.516;2023-04-15T13:48:55;4.28;;;2.00;;
57848;SDS011;68645;44.762;21.516;2023-04-15T13:51:21;3.25;;;1.80;;
57848;SDS011;68645;44.762;21.516;2023-04-15T13:53:47;3.30;;;1.90;;
57848;SDS011;68645;44.762;21.516;2023-04-15T13:56:13;3.75;;;2.25;;
57848;SDS011;68645;44.762;21.516;2023-04-15T13:58:39;4.05;;;1.45;;
57848;SDS011;68645;44.762;21.516;2023-04-15T14:01:05;4.70;;;1.67;;
57848;SDS011;68645;44.762;21.516;2023-04-15T14:03:32;5.65;;;2.40;;
57848;SDS011;68645;44.762;21.516;2023-04-15T14:05:59;3.25;;;1.60;;
57848;SDS011;68645;44.762;21.516;2023-04-15T14:08:25;4.40;;;1.98;;
57848;SDS011;68645;44.762;21.516;2023-04-15T14:10:51;2.58;;;1.02;;
57848;SDS011;68645;44.762;21.516;2023-04-15T14:13:17;5.40;;;1.50;;
57848;SDS011;68645;44.762;21.516;2023-04-15T14:15:44;1.77;;;1.20;;
57848;SDS011;68645;44.762;21.516;2023-04-15T14:18:10;5.30;;;2.40;;
57848;SDS011;68645;44.762;21.516;2023-04-15T14:20:36;1.42;;;0.90;;
57848;SDS011;68645;44.762;21.516;2023-04-15T14:23:02;4.40;;;1.70;;
57848;SDS011;68645;44.762;21.516;2023-04-15T14:25:29;4.60;;;1.98;;
57848;SDS011;68645;44.762;21.516;2023-04-15T14:27:55;6.47;;;3.65;;
57848;SDS011;68645;44.762;21.516;2023-04-15T14:30:21;3.92;;;2.10;;
57848;SDS011;68645;44.762;21.516;2023-04-15T14:32:47;4.78;;;1.67;;
57848;SDS011;68645;44.762;21.516;2023-04-15T14:35:13;3.10;;;1.42;;
57848;SDS011;68645;44.762;21.516;2023-04-15T14:37:39;3.90;;;1.90;;
57848;SDS011;68645;44.762;21.516;2023-04-15T14:40:06;4.82;;;1.80;;
57848;SDS011;68645;44.762;21.516;2023-04-15T14:42:32;3.78;;;1.63;;